createdAt,value
2023-04-21T00:00:16.652Z,26.08
2023-04-21T00:01:16.654Z,26.08
2023-04-21T00:02:16.706Z,26.08
2023-04-21T00:03:16.843Z,26.05
2023-04-21T00:04:16.926Z,26.07
2023-04-21T00:05:16.814Z,26.07
2023-04-21T00:06:16.760Z,26.08
2023-04-21T00:07:16.804Z,26.08
2023-04-21T00:08:16.821Z,26.08
2023-04-21T00:09:17.099Z,26.07
2023-04-21T00:10:16.852Z,26.05
2023-04-21T00:11:16.876Z,26.04
2023-04-21T00:12:16.878Z,26.05
2023-04-21T00:13:16.908Z,26.05
2023-04-21T00:14:16.932Z,26.07
2023-04-21T00:15:16.951Z,26.09
2023-04-21T00:16:17.019Z,26.05
2023-04-21T00:17:16.992Z,26.08
2023-04-21T00:18:17.023Z,26.07
2023-04-21T00:19:17.225Z,26.08
2023-04-21T00:20:17.077Z,26.05
2023-04-21T00:21:17.087Z,26.05
2023-04-21T00:22:17.120Z,26.07
2023-04-21T00:23:17.144Z,26.04
2023-04-21T00:24:17.152Z,26.08
2023-04-21T00:25:17.170Z,26.05
2023-04-21T00:26:17.188Z,26.05
2023-04-21T00:27:17.198Z,26.07
2023-04-21T00:28:17.216Z,26.05
2023-04-21T00:29:17.380Z,26.05
2023-04-21T00:30:17.277Z,26.05
2023-04-21T00:31:17.348Z,26.05
2023-04-21T00:32:17.322Z,26.05
2023-04-21T00:33:17.303Z,26.04
2023-04-21T00:34:17.326Z,26.02
2023-04-21T00:35:17.351Z,26.05
2023-04-21T00:36:17.342Z,26.05
2023-04-21T00:37:17.390Z,26.05
2023-04-21T00:38:17.382Z,26.05
2023-04-21T00:39:17.529Z,26.04
2023-04-21T00:40:17.455Z,26.02
2023-04-21T00:41:17.454Z,26.05
2023-04-21T00:42:17.484Z,26.05
2023-04-21T00:43:17.490Z,26.04
2023-04-21T00:44:17.521Z,26.04
2023-04-21T00:45:17.589Z,26.01
2023-04-21T00:46:17.600Z,26.04
2023-04-21T00:47:17.582Z,26.02
2023-04-21T00:48:17.638Z,26.04
2023-04-21T00:49:17.854Z,26.04
2023-04-21T00:50:17.645Z,26.02
2023-04-21T00:51:17.670Z,26.02
2023-04-21T00:52:17.681Z,26.04
2023-04-21T00:53:17.685Z,26.04
2023-04-21T00:54:17.722Z,26.02
2023-04-21T00:55:17.728Z,26.01
2023-04-21T00:56:17.743Z,26.04
2023-04-21T00:57:17.764Z,26.02
2023-04-21T00:58:17.796Z,26.02
2023-04-21T00:59:18.121Z,26.04
2023-04-21T01:00:17.839Z,26.02
2023-04-21T01:01:17.878Z,26.01
2023-04-21T01:02:17.928Z,26.01
2023-04-21T01:03:18.364Z,26.05
2023-04-21T01:04:17.926Z,26.02
2023-04-21T01:05:17.926Z,26.02
2023-04-21T01:06:17.946Z,26.02
2023-04-21T01:07:17.960Z,26.04
2023-04-21T01:08:17.987Z,26.00
2023-04-21T01:09:18.307Z,26.01
2023-04-21T01:10:18.028Z,26.02
2023-04-21T01:11:18.031Z,26.02
2023-04-21T01:12:18.070Z,26.04
2023-04-21T01:13:18.073Z,26.02
2023-04-21T01:14:18.108Z,26.02
2023-04-21T01:15:18.132Z,26.02
2023-04-21T01:16:18.201Z,26.04
2023-04-21T01:17:18.181Z,26.01
2023-04-21T01:18:18.190Z,26.01
2023-04-21T01:19:18.441Z,26.01
2023-04-21T01:20:18.214Z,26.01
2023-04-21T01:21:18.240Z,26.00
2023-04-21T01:22:18.260Z,26.02
2023-04-21T01:23:18.257Z,26.04
2023-04-21T01:24:18.289Z,26.01
2023-04-21T01:25:18.297Z,26.02
2023-04-21T01:26:18.346Z,26.01
2023-04-21T01:27:18.357Z,26.02
2023-04-21T01:28:18.385Z,26.02
2023-04-21T01:29:18.599Z,26.02
2023-04-21T01:30:18.401Z,26.02
2023-04-21T01:31:18.428Z,26.02
2023-04-21T01:32:18.540Z,26.01
2023-04-21T01:33:18.603Z,26.02
2023-04-21T01:34:18.528Z,26.01
2023-04-21T01:35:18.535Z,26.01
2023-04-21T01:36:18.571Z,26.00
2023-04-21T01:37:18.602Z,26.01
2023-04-21T01:38:19.525Z,26.01
2023-04-21T01:39:18.779Z,26.01
2023-04-21T01:40:18.668Z,26.00
2023-04-21T01:41:18.687Z,26.01
2023-04-21T01:42:18.696Z,26.00
2023-04-21T01:43:18.762Z,26.00
2023-04-21T01:44:18.746Z,26.01
2023-04-21T01:45:18.764Z,26.01
2023-04-21T01:46:18.817Z,26.01
2023-04-21T01:47:18.810Z,26.00
2023-04-21T01:48:18.835Z,25.98
2023-04-21T01:49:19.028Z,26.00
2023-04-21T01:50:18.872Z,26.01
2023-04-21T01:51:18.910Z,26.00
2023-04-21T01:52:18.927Z,26.00
2023-04-21T01:53:18.965Z,26.01
2023-04-21T01:54:18.981Z,26.01
2023-04-21T01:55:18.993Z,26.00
2023-04-21T01:56:19.041Z,26.00
2023-04-21T01:57:19.080Z,26.00
2023-04-21T01:58:19.091Z,26.02
2023-04-21T01:59:19.347Z,25.98
2023-04-21T02:00:19.093Z,26.02
2023-04-21T02:01:19.178Z,26.00
2023-04-21T02:02:19.187Z,25.98
2023-04-21T02:03:19.293Z,26.02
2023-04-21T02:04:19.277Z,26.01
2023-04-21T02:05:19.229Z,25.98
2023-04-21T02:06:19.236Z,26.00
2023-04-21T02:07:19.237Z,26.00
2023-04-21T02:08:19.259Z,25.98
2023-04-21T02:09:19.482Z,26.00
2023-04-21T02:10:19.357Z,25.98
2023-04-21T02:11:19.341Z,26.00
2023-04-21T02:12:19.358Z,25.98
2023-04-21T02:13:19.377Z,26.01
2023-04-21T02:14:19.381Z,25.98
2023-04-21T02:15:19.407Z,25.95
2023-04-21T02:16:19.510Z,25.98
2023-04-21T02:17:19.462Z,25.98
2023-04-21T02:18:19.486Z,26.00
2023-04-21T02:19:19.685Z,26.01
2023-04-21T02:20:19.521Z,26.00
2023-04-21T02:21:19.536Z,25.98
2023-04-21T02:22:19.559Z,26.01
2023-04-21T02:23:19.608Z,25.98
2023-04-21T02:24:19.616Z,25.98
2023-04-21T02:25:19.647Z,25.98
2023-04-21T02:26:19.674Z,25.98
2023-04-21T02:27:19.712Z,26.00
2023-04-21T02:28:19.729Z,26.01
2023-04-21T02:29:19.852Z,26.00
2023-04-21T02:30:19.743Z,26.00
2023-04-21T02:31:19.839Z,26.00
2023-04-21T02:32:25.556Z,26.00
2023-04-21T02:33:20.827Z,25.98
2023-04-21T02:34:19.766Z,26.00
2023-04-21T02:35:19.767Z,25.97
2023-04-21T02:36:19.798Z,26.00
2023-04-21T02:37:19.769Z,25.97
2023-04-21T02:38:19.741Z,25.98
2023-04-21T02:39:20.134Z,25.98
2023-04-21T02:40:19.725Z,26.00
2023-04-21T02:41:19.725Z,25.97
2023-04-21T02:42:19.717Z,25.98
2023-04-21T02:43:19.700Z,25.97
2023-04-21T02:44:19.696Z,25.98
2023-04-21T02:45:19.687Z,25.97
2023-04-21T02:46:19.718Z,25.97
2023-04-21T02:47:19.689Z,25.98
2023-04-21T02:48:19.687Z,25.95
2023-04-21T02:49:19.974Z,26.00
2023-04-21T02:50:19.654Z,25.97
2023-04-21T02:51:19.649Z,25.98
2023-04-21T02:52:19.673Z,25.97
2023-04-21T02:53:19.687Z,25.97
2023-04-21T02:54:19.703Z,25.94
2023-04-21T02:55:19.732Z,25.98
2023-04-21T02:56:19.733Z,25.98
2023-04-21T02:57:19.766Z,25.97
2023-04-21T02:58:19.767Z,25.98
2023-04-21T02:59:20.166Z,25.98
2023-04-21T03:00:19.838Z,25.98
2023-04-21T03:01:19.989Z,25.97
2023-04-21T03:02:19.895Z,25.97
2023-04-21T03:03:20.072Z,25.98
2023-04-21T03:04:20.007Z,25.97
2023-04-21T03:05:19.926Z,25.95
2023-04-21T03:06:19.938Z,25.97
2023-04-21T03:07:19.962Z,25.97
2023-04-21T03:08:19.978Z,25.97
2023-04-21T03:09:20.217Z,25.94
2023-04-21T03:10:20.014Z,25.97
2023-04-21T03:11:20.037Z,25.95
2023-04-21T03:12:20.067Z,25.95
2023-04-21T03:13:20.065Z,25.97
2023-04-21T03:14:20.095Z,25.95
2023-04-21T03:15:20.128Z,25.97
2023-04-21T03:16:20.167Z,25.97
2023-04-21T03:17:20.210Z,25.97
2023-04-21T03:18:20.177Z,25.95
2023-04-21T03:19:20.383Z,25.98
2023-04-21T03:20:20.204Z,25.97
2023-04-21T03:21:20.230Z,25.95
2023-04-21T03:22:20.243Z,25.97
2023-04-21T03:23:20.283Z,25.95
2023-04-21T03:24:20.298Z,25.95
2023-04-21T03:25:20.327Z,25.98
2023-04-21T03:26:20.331Z,25.95
2023-04-21T03:27:20.377Z,25.98
2023-04-21T03:28:20.382Z,25.95
2023-04-21T03:29:20.566Z,25.95
2023-04-21T03:30:20.422Z,25.94
2023-04-21T03:31:20.450Z,25.95
2023-04-21T03:32:20.669Z,25.95
2023-04-21T03:33:20.503Z,25.97
2023-04-21T03:34:20.522Z,25.94
2023-04-21T03:35:20.535Z,25.95
2023-04-21T03:36:20.571Z,25.98
2023-04-21T03:37:20.594Z,25.95
2023-04-21T03:38:20.627Z,25.95
2023-04-21T03:39:20.887Z,25.97
2023-04-21T03:40:20.692Z,25.94
2023-04-21T03:41:20.710Z,25.95
2023-04-21T03:42:20.718Z,25.92
2023-04-21T03:43:20.732Z,25.94
2023-04-21T03:44:20.746Z,25.95
2023-04-21T03:45:20.770Z,25.94
2023-04-21T03:46:20.828Z,25.94
2023-04-21T03:47:20.811Z,25.94
2023-04-21T03:48:20.845Z,25.94
2023-04-21T03:49:21.068Z,25.95
2023-04-21T03:50:20.907Z,25.95
2023-04-21T03:51:20.908Z,25.97
2023-04-21T03:52:20.942Z,25.94
2023-04-21T03:53:20.966Z,25.95
2023-04-21T03:54:21.001Z,25.95
2023-04-21T03:55:21.020Z,25.94
2023-04-21T03:56:21.085Z,25.94
2023-04-21T03:57:21.082Z,25.91
2023-04-21T03:58:21.097Z,25.95
2023-04-21T03:59:21.382Z,25.95
2023-04-21T04:00:21.213Z,25.92
2023-04-21T04:01:21.220Z,25.95
2023-04-21T04:02:21.348Z,25.94
2023-04-21T04:03:23.378Z,25.94
2023-04-21T04:04:21.441Z,25.95
2023-04-21T04:05:21.324Z,25.95
2023-04-21T04:06:21.344Z,25.94
2023-04-21T04:07:21.342Z,25.95
2023-04-21T04:08:21.378Z,25.94
2023-04-21T04:09:21.552Z,25.97
2023-04-21T04:10:21.427Z,25.94
2023-04-21T04:11:21.467Z,25.94
2023-04-21T04:12:21.481Z,25.95
2023-04-21T04:13:21.516Z,25.94
2023-04-21T04:14:21.525Z,25.97
2023-04-21T04:15:21.545Z,25.94
2023-04-21T04:16:21.637Z,25.91
2023-04-21T04:17:21.605Z,25.94
2023-04-21T04:18:21.651Z,25.95
2023-04-21T04:19:21.873Z,25.95
2023-04-21T04:20:21.690Z,25.92
2023-04-21T04:21:21.703Z,25.91
2023-04-21T04:22:21.717Z,25.94
2023-04-21T04:23:21.742Z,25.95
2023-04-21T04:24:21.766Z,25.94
2023-04-21T04:25:21.795Z,25.94
2023-04-21T04:26:21.814Z,25.95
2023-04-21T04:27:21.834Z,25.94
2023-04-21T04:28:21.872Z,25.92
2023-04-21T04:29:21.880Z,25.94
2023-04-21T04:30:21.914Z,25.97
2023-04-21T04:31:21.968Z,25.95
2023-04-21T04:32:21.965Z,25.94
2023-04-21T04:33:21.994Z,25.94
2023-04-21T04:34:21.995Z,25.92
2023-04-21T04:35:22.010Z,25.94
2023-04-21T04:36:22.036Z,25.94
2023-04-21T04:37:22.048Z,25.97
2023-04-21T04:38:22.069Z,25.94
2023-04-21T04:39:22.121Z,25.94
2023-04-21T04:40:22.149Z,25.94
2023-04-21T04:41:22.173Z,25.92
2023-04-21T04:42:22.198Z,25.94
2023-04-21T04:43:22.247Z,25.94
2023-04-21T04:44:22.348Z,25.94
2023-04-21T04:45:22.340Z,25.94
2023-04-21T04:46:22.419Z,25.95
2023-04-21T04:47:22.391Z,25.94
2023-04-21T04:48:22.366Z,25.95
2023-04-21T04:49:24.038Z,25.95
2023-04-21T04:50:22.388Z,25.95
2023-04-21T04:51:22.426Z,25.94
2023-04-21T04:52:22.452Z,25.92
2023-04-21T04:53:22.488Z,25.95
2023-04-21T04:54:22.542Z,25.92
2023-04-21T04:55:22.535Z,25.97
2023-04-21T04:56:22.548Z,25.94
2023-04-21T04:57:22.578Z,25.92
2023-04-21T04:58:22.628Z,25.94
2023-04-21T04:59:22.646Z,25.92
2023-04-21T05:00:22.671Z,25.94
2023-04-21T05:01:22.739Z,25.94
2023-04-21T05:02:23.067Z,25.92
2023-04-21T05:03:22.849Z,25.94
2023-04-21T05:04:23.333Z,25.92
2023-04-21T05:05:22.814Z,25.92
2023-04-21T05:06:22.848Z,25.92
2023-04-21T05:07:23.342Z,25.92
2023-04-21T05:08:22.868Z,25.94
2023-04-21T05:09:22.920Z,25.92
2023-04-21T05:10:22.926Z,25.92
2023-04-21T05:11:22.944Z,25.94
2023-04-21T05:12:22.963Z,25.95
2023-04-21T05:13:22.985Z,25.97
2023-04-21T05:14:22.988Z,25.95
2023-04-21T05:15:23.007Z,25.94
2023-04-21T05:16:23.074Z,25.94
2023-04-21T05:17:23.082Z,25.92
2023-04-21T05:18:23.073Z,25.97
2023-04-21T05:19:23.105Z,25.94
2023-04-21T05:20:23.118Z,25.94
2023-04-21T05:21:23.155Z,25.97
2023-04-21T05:22:23.194Z,25.94
2023-04-21T05:23:23.213Z,25.95
2023-04-21T05:24:23.250Z,25.98
2023-04-21T05:25:23.251Z,25.95
2023-04-21T05:26:23.280Z,25.97
2023-04-21T05:27:23.306Z,25.95
2023-04-21T05:28:23.336Z,25.97
2023-04-21T05:29:23.330Z,25.98
2023-04-21T05:30:23.361Z,26.00
2023-04-21T05:31:23.413Z,26.02
2023-04-21T05:32:23.496Z,26.04
2023-04-21T05:33:23.433Z,26.05
2023-04-21T05:34:23.447Z,26.05
2023-04-21T05:35:23.500Z,26.08
2023-04-21T05:36:23.495Z,26.09
2023-04-21T05:37:23.521Z,26.12
2023-04-21T05:38:23.525Z,26.18
2023-04-21T05:39:23.536Z,26.17
2023-04-21T05:40:23.544Z,26.21
2023-04-21T05:41:23.543Z,26.24
2023-04-21T05:42:23.868Z,26.27
2023-04-21T05:43:23.539Z,26.28
2023-04-21T05:44:23.561Z,26.31
2023-04-21T05:45:23.565Z,26.32
2023-04-21T05:46:23.639Z,26.36
2023-04-21T05:47:23.626Z,26.38
2023-04-21T05:48:23.660Z,26.42
2023-04-21T05:49:23.683Z,26.43
2023-04-21T05:50:23.736Z,26.41
2023-04-21T05:51:23.744Z,26.48
2023-04-21T05:52:23.893Z,26.49
2023-04-21T05:53:23.855Z,26.51
2023-04-21T05:54:23.894Z,26.52
2023-04-21T05:55:23.956Z,26.56
2023-04-21T05:56:24.001Z,26.59
2023-04-21T05:57:24.040Z,26.60
2023-04-21T05:58:24.060Z,26.62
2023-04-21T05:59:24.106Z,26.66
2023-04-21T06:00:24.139Z,26.68
2023-04-21T06:01:24.178Z,26.69
2023-04-21T06:02:24.370Z,26.72
2023-04-21T06:03:24.448Z,26.78
2023-04-21T06:04:24.740Z,26.78
2023-04-21T06:05:24.470Z,26.81
2023-04-21T06:06:24.513Z,26.83
2023-04-21T06:07:24.559Z,26.86
2023-04-21T06:08:24.630Z,26.87
2023-04-21T06:09:24.684Z,26.89
2023-04-21T06:10:24.741Z,26.89
2023-04-21T06:11:24.812Z,26.89
2023-04-21T06:12:24.862Z,26.89
2023-04-21T06:13:24.914Z,26.89
2023-04-21T06:14:25.019Z,26.93
2023-04-21T06:15:25.056Z,26.92
2023-04-21T06:16:25.115Z,26.94
2023-04-21T06:17:25.227Z,26.96
2023-04-21T06:18:25.220Z,26.99
2023-04-21T06:19:25.276Z,26.97
2023-04-21T06:20:25.323Z,27.00
2023-04-21T06:21:25.398Z,27.03
2023-04-21T06:22:25.446Z,27.04
2023-04-21T06:23:25.485Z,27.06
2023-04-21T06:24:25.760Z,27.06
2023-04-21T06:25:25.585Z,27.06
2023-04-21T06:26:25.622Z,27.07
2023-04-21T06:27:25.885Z,27.09
2023-04-21T06:28:25.710Z,27.09
2023-04-21T06:29:25.781Z,27.10
2023-04-21T06:30:25.796Z,27.13
2023-04-21T06:31:25.937Z,27.11
2023-04-21T06:32:26.413Z,27.13
2023-04-21T06:33:25.973Z,27.02
2023-04-21T06:34:25.966Z,26.89
2023-04-21T06:35:25.997Z,26.79
2023-04-21T06:36:25.995Z,26.71
2023-04-21T06:37:26.393Z,26.66
2023-04-21T06:38:25.985Z,26.64
2023-04-21T06:39:25.992Z,26.60
2023-04-21T06:40:26.018Z,26.63
2023-04-21T06:41:26.075Z,26.68
2023-04-21T06:42:26.073Z,26.73
2023-04-21T06:43:26.115Z,26.73
2023-04-21T06:44:26.120Z,26.79
2023-04-21T06:45:26.166Z,26.83
2023-04-21T06:46:26.235Z,26.85
2023-04-21T06:47:26.360Z,26.86
2023-04-21T06:48:26.432Z,26.89
2023-04-21T06:49:26.417Z,26.92
2023-04-21T06:50:26.524Z,26.94
2023-04-21T06:51:26.520Z,26.96
2023-04-21T06:52:26.903Z,27.02
2023-04-21T06:53:26.649Z,27.04
2023-04-21T06:54:26.717Z,27.10
2023-04-21T06:55:26.729Z,27.11
2023-04-21T06:56:26.783Z,27.15
2023-04-21T06:57:26.906Z,27.18
2023-04-21T06:58:26.876Z,27.20
2023-04-21T06:59:26.940Z,27.24
2023-04-21T07:00:27.010Z,27.26
2023-04-21T07:01:27.058Z,27.30
2023-04-21T07:02:27.480Z,27.31
2023-04-21T07:03:27.120Z,27.33
2023-04-21T07:04:27.119Z,27.36
2023-04-21T07:05:27.142Z,27.40
2023-04-21T07:06:27.176Z,27.40
2023-04-21T07:07:27.221Z,27.43
2023-04-21T07:08:27.211Z,27.45
2023-04-21T07:09:27.243Z,27.47
2023-04-21T07:10:27.264Z,27.48
2023-04-21T07:11:27.281Z,27.50
2023-04-21T07:12:27.339Z,27.54
2023-04-21T07:13:27.348Z,27.55
2023-04-21T07:14:27.337Z,27.58
2023-04-21T07:15:27.344Z,27.60
2023-04-21T07:16:27.428Z,27.60
2023-04-21T07:17:27.465Z,27.61
2023-04-21T07:18:27.378Z,27.61
2023-04-21T07:19:27.376Z,27.62
2023-04-21T07:20:27.402Z,27.64
2023-04-21T07:21:27.419Z,27.65
2023-04-21T07:22:27.401Z,27.64
2023-04-21T07:23:27.455Z,27.62
2023-04-21T07:24:27.463Z,27.62
2023-04-21T07:25:27.463Z,27.62
2023-04-21T07:26:27.472Z,27.62
2023-04-21T07:27:27.936Z,27.61
2023-04-21T07:28:27.506Z,27.61
2023-04-21T07:29:27.539Z,27.60
2023-04-21T07:30:27.584Z,27.58
2023-04-21T07:31:27.598Z,27.54
2023-04-21T07:32:27.648Z,27.53
2023-04-21T07:33:27.774Z,27.51
2023-04-21T07:34:27.658Z,27.51
2023-04-21T07:35:27.971Z,27.51
2023-04-21T07:36:27.724Z,27.53
2023-04-21T07:37:27.908Z,27.54
2023-04-21T07:38:28.113Z,27.53
2023-04-21T07:39:27.829Z,27.55
2023-04-21T07:40:27.811Z,27.58
2023-04-21T07:41:27.805Z,27.60
2023-04-21T07:42:27.859Z,27.62
2023-04-21T07:43:27.842Z,27.64
2023-04-21T07:44:27.854Z,27.65
2023-04-21T07:45:27.871Z,27.66
2023-04-21T07:46:27.881Z,27.66
2023-04-21T07:47:27.932Z,27.69
2023-04-21T07:48:27.900Z,27.66
2023-04-21T07:49:27.907Z,27.69
2023-04-21T07:50:27.883Z,27.71
2023-04-21T07:51:28.135Z,27.75
2023-04-21T07:52:27.895Z,27.75
2023-04-21T07:53:27.889Z,27.78
2023-04-21T07:54:28.544Z,27.81
2023-04-21T07:55:27.877Z,27.81
2023-04-21T07:56:27.875Z,27.87
2023-04-21T07:57:27.941Z,27.85
2023-04-21T07:58:27.902Z,27.88
2023-04-21T07:59:27.910Z,27.89
2023-04-21T08:00:27.953Z,27.89
2023-04-21T08:01:27.960Z,27.92
2023-04-21T08:02:28.542Z,27.95
2023-04-21T08:03:28.166Z,27.95
2023-04-21T08:04:28.231Z,27.96
2023-04-21T08:05:32.156Z,27.99
2023-04-21T08:06:29.288Z,27.99
2023-04-21T08:07:28.121Z,28.02
2023-04-21T08:08:29.649Z,28.01
2023-04-21T08:09:28.127Z,28.02
2023-04-21T08:10:28.094Z,28.05
2023-04-21T08:11:28.087Z,28.06
2023-04-21T08:12:28.081Z,28.05
2023-04-21T08:13:28.109Z,28.08
2023-04-21T08:14:28.052Z,28.06
2023-04-21T08:15:28.092Z,28.09
2023-04-21T08:16:28.259Z,28.09
2023-04-21T08:17:28.466Z,28.12
2023-04-21T08:18:28.035Z,28.12
2023-04-21T08:19:28.092Z,28.13
2023-04-21T08:20:28.051Z,28.12
2023-04-21T08:21:29.511Z,27.72
2023-04-21T08:22:28.480Z,25.90
2023-04-21T08:23:28.074Z,24.35
2023-04-21T08:24:27.980Z,23.02
2023-04-21T08:25:27.996Z,22.90
2023-04-21T08:26:27.975Z,22.60
2023-04-21T08:27:28.450Z,22.37
2023-04-21T08:28:28.004Z,21.72
2023-04-21T08:29:27.967Z,21.00
2023-04-21T08:30:28.031Z,21.01
2023-04-21T08:31:28.002Z,21.27
2023-04-21T08:32:28.037Z,21.04
2023-04-21T08:33:27.954Z,20.73
2023-04-21T08:34:28.188Z,20.93
2023-04-21T08:35:27.909Z,21.36
2023-04-21T08:36:29.930Z,21.72
2023-04-21T08:37:28.433Z,21.69
2023-04-21T08:38:28.106Z,22.02
2023-04-21T08:39:28.151Z,21.93
2023-04-21T08:40:28.210Z,21.28
2023-04-21T08:41:28.264Z,21.79
2023-04-21T08:42:28.241Z,22.20
2023-04-21T08:43:28.250Z,22.57
2023-04-21T08:44:28.288Z,22.94
2023-04-21T08:45:28.361Z,23.29
2023-04-21T08:46:28.502Z,23.60
2023-04-21T08:47:28.414Z,23.87
2023-04-21T08:48:28.418Z,24.19
2023-04-21T08:49:28.406Z,24.44
2023-04-21T08:50:28.441Z,24.65
2023-04-21T08:51:28.410Z,24.85
2023-04-21T08:52:28.463Z,25.08
2023-04-21T08:53:28.460Z,25.23
2023-04-21T08:54:30.005Z,25.40
2023-04-21T08:55:28.478Z,25.53
2023-04-21T08:56:28.500Z,25.70
2023-04-21T08:57:28.558Z,25.83
2023-04-21T08:58:28.631Z,25.92
2023-04-21T08:59:28.685Z,26.05
2023-04-21T09:00:28.748Z,26.14
2023-04-21T09:01:28.847Z,26.24
2023-04-21T09:02:28.959Z,26.30
2023-04-21T09:03:29.061Z,26.39
2023-04-21T09:04:29.162Z,26.43
2023-04-21T09:05:29.185Z,26.52
2023-04-21T09:06:29.135Z,26.58
2023-04-21T09:07:29.159Z,26.63
2023-04-21T09:08:29.190Z,26.69
2023-04-21T09:09:29.226Z,26.73
2023-04-21T09:10:29.269Z,26.75
2023-04-21T09:11:29.335Z,26.81
2023-04-21T09:12:29.391Z,26.86
2023-04-21T09:13:29.421Z,26.87
2023-04-21T09:14:29.458Z,26.90
2023-04-21T09:15:29.512Z,26.94
2023-04-21T09:16:29.599Z,26.99
2023-04-21T09:17:29.666Z,27.03
2023-04-21T09:18:29.622Z,27.09
2023-04-21T09:19:29.652Z,27.13
2023-04-21T09:20:29.707Z,27.10
2023-04-21T09:21:32.125Z,27.07
2023-04-21T09:22:29.924Z,27.13
2023-04-21T09:23:29.959Z,27.11
2023-04-21T09:24:29.990Z,27.11
2023-04-21T09:25:30.056Z,27.11
2023-04-21T09:26:30.800Z,27.10
2023-04-21T09:27:30.468Z,27.09
2023-04-21T09:28:30.456Z,27.07
2023-04-21T09:29:30.265Z,27.07
2023-04-21T09:30:30.306Z,27.03
2023-04-21T09:31:30.402Z,26.69
2023-04-21T09:32:30.432Z,26.82
2023-04-21T09:33:34.571Z,26.78
2023-04-21T09:34:31.409Z,26.72
2023-04-21T09:35:30.655Z,26.62
2023-04-21T09:36:30.994Z,26.52
2023-04-21T09:37:30.465Z,26.45
2023-04-21T09:38:30.398Z,26.41
2023-04-21T09:39:45.588Z,26.39
2023-04-21T09:40:31.379Z,26.31
2023-04-21T09:41:30.369Z,26.30
2023-04-21T09:42:30.351Z,26.24
2023-04-21T09:43:30.363Z,26.22
2023-04-21T09:44:36.441Z,26.24
2023-04-21T09:45:39.663Z,26.22
2023-04-21T09:46:31.377Z,26.21
2023-04-21T09:47:30.438Z,26.18
2023-04-21T09:48:30.311Z,26.14
2023-04-21T09:49:30.299Z,26.12
2023-04-21T09:51:42.787Z,26.11
2023-04-21T09:52:31.478Z,26.11
2023-04-21T09:53:30.284Z,26.11
2023-04-21T09:54:30.552Z,26.11
2023-04-21T09:55:30.264Z,26.11
2023-04-21T09:56:30.266Z,26.11
2023-04-21T09:57:30.477Z,26.11
2023-04-21T09:58:30.481Z,26.12
2023-04-21T09:59:30.261Z,26.14
2023-04-21T10:00:30.255Z,26.17
2023-04-21T10:01:30.304Z,26.18
2023-04-21T10:02:30.350Z,26.24
2023-04-21T10:03:30.371Z,26.27
2023-04-21T10:04:30.874Z,26.34
2023-04-21T10:05:30.234Z,26.36
2023-04-21T10:06:30.206Z,26.43
2023-04-21T10:07:30.483Z,26.51
2023-04-21T10:08:30.196Z,26.56
2023-04-21T10:09:30.167Z,26.59
2023-04-21T10:10:30.184Z,26.62
2023-04-21T10:11:30.184Z,26.68
2023-04-21T10:12:30.152Z,26.73
2023-04-21T10:13:30.204Z,26.79
2023-04-21T10:14:30.276Z,26.81
2023-04-21T10:15:30.313Z,26.85
2023-04-21T10:16:30.435Z,26.87
2023-04-21T10:17:30.511Z,26.92
2023-04-21T10:18:31.003Z,26.96
2023-04-21T10:19:30.581Z,27.00
2023-04-21T10:20:30.625Z,27.02
2023-04-21T10:21:30.666Z,27.03
2023-04-21T10:22:30.726Z,27.06
2023-04-21T10:23:30.990Z,27.09
2023-04-21T10:24:30.861Z,27.13
2023-04-21T10:25:30.878Z,27.13
2023-04-21T10:26:30.937Z,27.15
2023-04-21T10:27:30.987Z,27.20
2023-04-21T10:28:31.023Z,27.23
2023-04-21T10:29:40.140Z,27.24
2023-04-21T10:30:32.056Z,27.27
2023-04-21T10:31:31.082Z,27.31
2023-04-21T10:32:31.075Z,27.33
2023-04-21T10:33:31.010Z,27.31
2023-04-21T10:34:31.003Z,27.33
2023-04-21T10:35:31.037Z,27.34
2023-04-21T10:36:30.990Z,27.36
2023-04-21T10:37:31.001Z,27.37
2023-04-21T10:38:30.973Z,27.34
2023-04-21T10:39:31.000Z,27.37
2023-04-21T10:40:43.150Z,27.37
2023-04-21T10:41:31.971Z,27.31
2023-04-21T10:42:30.964Z,27.34
2023-04-21T10:43:30.971Z,27.33
2023-04-21T10:44:30.933Z,27.34
2023-04-21T10:45:30.927Z,27.30
2023-04-21T10:46:30.988Z,27.29
2023-04-21T10:47:30.965Z,27.27
2023-04-21T10:48:30.927Z,27.29
2023-04-21T10:49:30.913Z,27.24
2023-04-21T10:50:30.922Z,27.26
2023-04-21T10:51:30.897Z,27.23
2023-04-21T10:52:30.967Z,27.23
2023-04-21T10:53:31.002Z,27.17
2023-04-21T10:54:31.052Z,27.15
2023-04-21T10:55:31.118Z,27.17
2023-04-21T10:56:31.157Z,27.14
2023-04-21T10:57:31.234Z,27.11
2023-04-21T10:58:31.504Z,27.11
2023-04-21T10:59:31.345Z,27.11
2023-04-21T11:00:31.395Z,27.07
2023-04-21T11:01:31.517Z,27.09
2023-04-21T11:02:31.603Z,27.07
2023-04-21T11:03:31.778Z,27.07
2023-04-21T11:04:32.036Z,27.06
2023-04-21T11:05:31.689Z,27.06
2023-04-21T11:06:31.753Z,27.04
2023-04-21T11:07:31.807Z,27.04
2023-04-21T11:08:31.871Z,27.00
2023-04-21T11:09:31.925Z,27.02
2023-04-21T11:10:31.986Z,27.00
2023-04-21T11:11:32.037Z,26.99
2023-04-21T11:12:32.095Z,26.99
2023-04-21T11:13:32.172Z,26.99
2023-04-21T11:14:32.712Z,26.93
2023-04-21T11:15:32.212Z,26.82
2023-04-21T11:16:32.261Z,26.71
2023-04-21T11:17:32.288Z,26.68
2023-04-21T11:18:32.494Z,26.62
2023-04-21T11:19:32.231Z,26.60
2023-04-21T11:20:32.258Z,26.56
2023-04-21T11:21:32.223Z,26.58
2023-04-21T11:22:32.240Z,26.60
2023-04-21T11:23:32.515Z,26.62
2023-04-21T11:24:32.269Z,26.62
2023-04-21T11:25:32.297Z,26.66
2023-04-21T11:26:32.357Z,26.66
2023-04-21T11:27:32.364Z,26.71
2023-04-21T11:28:32.367Z,26.73
2023-04-21T11:29:32.376Z,26.76
2023-04-21T11:30:32.477Z,26.76
2023-04-21T11:31:32.544Z,26.78
2023-04-21T11:32:32.506Z,26.79
2023-04-21T11:33:32.509Z,26.82
2023-04-21T11:34:32.520Z,26.82
2023-04-21T11:35:32.625Z,26.86
2023-04-21T11:36:32.662Z,26.86
2023-04-21T11:37:32.717Z,26.86
2023-04-21T11:38:32.794Z,26.86
2023-04-21T11:39:32.837Z,26.89
2023-04-21T11:40:32.923Z,26.89
2023-04-21T11:41:32.971Z,26.93
2023-04-21T11:42:33.054Z,26.92
2023-04-21T11:43:33.110Z,26.93
2023-04-21T11:44:33.169Z,26.93
2023-04-21T11:45:33.237Z,26.96
2023-04-21T11:46:33.362Z,26.94
2023-04-21T11:47:33.355Z,26.94
2023-04-21T11:48:33.398Z,26.96
2023-04-21T11:49:33.459Z,26.97
2023-04-21T11:50:33.535Z,26.94
2023-04-21T11:51:33.612Z,26.97
2023-04-21T11:52:33.661Z,26.96
2023-04-21T11:53:33.707Z,26.96
2023-04-21T11:54:33.788Z,26.96
2023-04-21T11:55:33.822Z,26.96
2023-04-21T11:56:33.897Z,26.96
2023-04-21T11:57:34.027Z,26.99
2023-04-21T11:58:33.992Z,26.96
2023-04-21T11:59:34.039Z,26.97
2023-04-21T12:00:34.121Z,26.97
2023-04-21T12:01:34.172Z,26.96
2023-04-21T12:02:34.326Z,26.97
2023-04-21T12:03:34.432Z,26.99
2023-04-21T12:04:34.617Z,26.96
2023-04-21T12:05:34.407Z,26.96
2023-04-21T12:06:34.448Z,26.96
2023-04-21T12:07:34.493Z,26.96
2023-04-21T12:08:34.580Z,26.96
2023-04-21T12:09:34.604Z,26.96
2023-04-21T12:10:34.679Z,26.99
2023-04-21T12:11:34.738Z,26.99
2023-04-21T12:12:35.966Z,26.97
2023-04-21T12:13:34.838Z,26.97
2023-04-21T12:14:34.877Z,26.97
2023-04-21T12:16:35.090Z,26.97
2023-04-21T12:17:35.099Z,26.96
2023-04-21T12:18:36.651Z,26.97
2023-04-21T12:19:35.193Z,26.97
2023-04-21T12:20:35.561Z,26.99
2023-04-21T12:21:35.305Z,26.97
2023-04-21T12:22:35.373Z,26.99
2023-04-21T12:23:35.432Z,26.96
2023-04-21T12:24:36.673Z,26.97
2023-04-21T12:25:35.513Z,26.96
2023-04-21T12:26:35.589Z,26.97
2023-04-21T12:27:35.657Z,26.99
2023-04-21T12:28:35.732Z,26.97
2023-04-21T12:29:35.803Z,26.96
2023-04-21T12:30:39.341Z,26.96
2023-04-21T12:31:36.970Z,26.94
2023-04-21T12:32:35.883Z,26.94
2023-04-21T12:33:35.854Z,26.94
2023-04-21T12:34:35.828Z,26.96
2023-04-21T12:35:35.819Z,26.93
2023-04-21T12:36:36.595Z,26.93
2023-04-21T12:37:35.809Z,26.94
2023-04-21T12:38:35.820Z,26.93
2023-04-21T12:39:35.848Z,26.93
2023-04-21T12:40:35.843Z,26.93
2023-04-21T12:41:35.896Z,26.94
2023-04-21T12:42:37.851Z,26.96
2023-04-21T12:43:36.046Z,26.97
2023-04-21T12:44:36.096Z,26.97
2023-04-21T12:45:36.161Z,26.97
2023-04-21T12:46:36.189Z,26.97
2023-04-21T12:47:36.267Z,26.97
2023-04-21T12:48:36.305Z,26.97
2023-04-21T12:49:36.345Z,26.97
2023-04-21T12:50:36.394Z,27.00
2023-04-21T12:51:36.444Z,27.02
2023-04-21T12:52:36.505Z,26.99
2023-04-21T12:53:36.601Z,26.97
2023-04-21T12:54:36.622Z,26.99